Time;durP1;ratioP1;P1;durP2;ratioP2;P2;SDS_P1;SDS_P2;PMS_P1;PMS_P2;Temp;Humidity;BMP_temperature;BMP_pressure;BME280_temperature;BME280_humidity;BME280_pressure;Samples;Min_cycle;Max_cycle;Signal;HPM_P1;HPM_P2
2022/11/09 00:01:03;;;;;;;62.67;41.30;;;11.80;89.70;;;;;;5000521;28;20223;-68
2022/11/09 00:03:30;;;;;;;65.17;46.00;;;11.80;89.70;;;;;;5008141;28;20249;-68
2022/11/09 00:05:58;;;;;;;70.77;43.80;;;11.80;89.60;;;;;;5005070;28;20261;-68
2022/11/09 00:08:25;;;;;;;61.37;42.33;;;11.80;89.60;;;;;;5005985;28;20219;-68
2022/11/09 00:10:52;;;;;;;70.80;44.83;;;11.80;89.60;;;;;;5003947;28;20645;-68
2022/11/09 00:13:20;;;;;;;55.63;42.07;;;11.80;89.50;;;;;;5005147;28;20698;-68
2022/11/09 00:15:48;;;;;;;64.50;43.93;;;11.80;89.50;;;;;;5005722;28;20230;-68
2022/11/09 00:18:14;;;;;;;64.37;43.50;;;11.80;89.50;;;;;;5001890;28;20555;-68
2022/11/09 00:20:42;;;;;;;65.60;45.30;;;11.70;89.30;;;;;;5005266;28;20227;-68
2022/11/09 00:23:15;;;;;;;68.67;43.90;;;11.80;89.40;;;;;;5003387;28;20250;-68
2022/11/09 00:25:43;;;;;;;64.53;46.10;;;11.70;89.40;;;;;;5005999;28;20320;-68
2022/11/09 00:28:10;;;;;;;69.83;43.40;;;11.70;89.50;;;;;;5003523;28;20202;-68
2022/11/09 00:30:37;;;;;;;64.67;45.33;;;11.70;89.60;;;;;;5011386;28;20281;-68
2022/11/09 00:33:05;;;;;;;61.97;44.67;;;11.70;89.50;;;;;;5002225;28;20205;-68
2022/11/09 00:35:32;;;;;;;59.47;41.60;;;11.70;89.50;;;;;;5012253;28;20210;-68
2022/11/09 00:38:01;;;;;;;65.30;43.80;;;11.70;89.40;;;;;;5004336;28;20527;-68
2022/11/09 00:40:29;;;;;;;61.60;43.50;;;11.60;89.30;;;;;;5003699;28;20533;-68
2022/11/09 00:42:56;;;;;;;57.90;43.50;;;11.60;89.30;;;;;;5019342;28;20454;-68
2022/11/09 00:45:23;;;;;;;65.93;44.63;;;11.60;89.40;;;;;;5006137;28;20219;-68
2022/11/09 00:47:50;;;;;;;70.67;46.57;;;11.60;89.20;;;;;;5004757;28;20307;-68
2022/11/09 00:50:17;;;;;;;68.70;43.80;;;11.50;89.20;;;;;;5003459;28;20203;-67
2022/11/09 00:52:44;;;;;;;69.17;44.23;;;11.50;89.10;;;;;;5001594;28;20211;-67
2022/11/09 00:55:11;;;;;;;62.70;45.70;;;11.50;89.10;;;;;;5003832;28;20209;-68
2022/11/09 00:57:38;;;;;;;64.97;44.97;;;11.40;89.10;;;;;;5003030;28;20228;-68
2022/11/09 01:00:06;;;;;;;58.97;44.13;;;11.40;89.10;;;;;;5017265;28;20208;-68
2022/11/09 01:02:33;;;;;;;63.23;45.47;;;11.40;89.20;;;;;;5017599;28;20633;-69
2022/11/09 01:05:00;;;;;;;62.13;44.93;;;11.30;89.30;;;;;;5003663;28;20206;-68
2022/11/09 01:07:27;;;;;;;59.37;43.87;;;11.30;90.00;;;;;;5004712;28;20193;-68
2022/11/09 01:09:54;;;;;;;71.23;47.63;;;11.30;89.60;;;;;;5007213;28;20218;-68
2022/11/09 01:12:23;;;;;;;65.80;45.03;;;11.20;89.60;;;;;;5012396;28;20211;-68
2022/11/09 01:14:50;;;;;;;70.30;45.67;;;11.20;89.70;;;;;;5005257;28;20235;-68
2022/11/09 01:17:17;;;;;;;63.83;45.17;;;11.30;90.00;;;;;;5003327;28;20659;-68
2022/11/09 01:19:46;;;;;;;70.77;47.13;;;11.30;90.00;;;;;;5004748;28;20701;-68
2022/11/09 01:22:14;;;;;;;72.00;46.47;;;11.30;90.00;;;;;;5009234;28;20225;-68
2022/11/09 01:24:41;;;;;;;61.57;44.07;;;11.30;89.80;;;;;;5000365;28;20267;-68
2022/11/09 01:27:08;;;;;;;63.43;46.57;;;11.30;89.80;;;;;;5033076;28;20198;-68
2022/11/09 01:29:35;;;;;;;64.63;45.57;;;11.30;90.00;;;;;;5003382;28;20236;-68
2022/11/09 01:32:03;;;;;;;71.33;48.50;;;11.40;90.00;;;;;;5005288;28;20225;-68
2022/11/09 01:34:30;;;;;;;67.90;47.17;;;11.30;90.10;;;;;;5018242;28;20222;-68
2022/11/09 01:37:01;;;;;;;65.43;48.00;;;11.40;90.20;;;;;;5013229;28;20204;-67
2022/11/09 01:39:29;;;;;;;73.53;50.10;;;11.40;90.30;;;;;;5007527;28;20222;-67
2022/11/09 01:41:56;;;;;;;77.50;49.93;;;11.50;90.30;;;;;;5006635;28;20222;-68
2022/11/09 01:44:26;;;;;;;76.33;50.23;;;11.50;90.40;;;;;;5004487;28;20199;-68
2022/11/09 01:47:03;;;;;;;71.10;49.80;;;11.50;90.40;;;;;;5002195;28;20264;-68
2022/11/09 01:49:51;;;;;;;75.00;51.43;;;11.60;90.40;;;;;;5019101;28;20232;-69
2022/11/09 01:52:27;;;;;;;72.57;49.73;;;11.60;90.30;;;;;;5000838;28;20201;-68
2022/11/09 01:55:13;;;;;;;68.60;48.90;;;11.60;90.30;;;;;;5010238;28;20221;-68
2022/11/09 01:57:50;;;;;;;79.67;51.80;;;11.70;90.40;;;;;;5005672;28;20264;-68
2022/11/09 02:00:18;;;;;;;75.47;50.43;;;11.70;90.40;;;;;;5006399;28;20204;-68
2022/11/09 02:02:52;;;;;;;71.10;50.60;;;11.70;90.40;;;;;;5003802;28;20274;-68
2022/11/09 02:05:25;;;;;;;72.60;49.93;;;11.70;90.40;;;;;;5010195;28;20238;-68
2022/11/09 02:07:55;;;;;;;71.43;48.30;;;11.70;90.40;;;;;;5002927;28;20588;-68
2022/11/09 02:10:34;;;;;;;60.20;47.37;;;11.80;90.40;;;;;;4997218;28;20208;-68
2022/11/09 02:13:02;;;;;;;73.53;49.77;;;11.80;90.40;;;;;;5019026;28;20228;-68
2022/11/09 02:15:36;;;;;;;72.10;50.83;;;11.80;90.40;;;;;;5010156;28;20593;-68
2022/11/09 02:18:10;;;;;;;68.77;49.27;;;11.80;90.40;;;;;;5033564;28;20207;-68
2022/11/09 02:20:57;;;;;;;73.60;52.47;;;11.90;90.40;;;;;;5010224;28;20211;-68
2022/11/09 02:23:26;;;;;;;80.50;52.40;;;11.90;90.50;;;;;;5002384;28;20204;-69
2022/11/09 02:26:02;;;;;;;73.10;51.50;;;11.90;90.40;;;;;;5010998;28;20299;-68
2022/11/09 02:28:31;;;;;;;78.23;53.27;;;11.90;90.50;;;;;;5008044;28;20627;-68
2022/11/09 02:30:58;;;;;;;77.00;52.60;;;11.90;90.50;;;;;;5009391;28;20651;-68
2022/11/09 02:33:25;;;;;;;72.60;53.07;;;11.90;90.50;;;;;;5007129;28;20252;-68
2022/11/09 02:35:53;;;;;;;82.10;54.07;;;11.90;90.50;;;;;;5002508;28;20219;-69
2022/11/09 02:38:21;;;;;;;70.83;50.07;;;12.00;90.50;;;;;;5004854;28;20219;-68
2022/11/09 02:40:50;;;;;;;70.67;50.83;;;12.00;90.50;;;;;;5010297;28;20569;-68
2022/11/09 02:43:18;;;;;;;85.20;52.73;;;12.00;90.50;;;;;;5009134;28;20202;-69
2022/11/09 02:45:46;;;;;;;70.50;52.03;;;12.00;90.50;;;;;;5011588;28;20632;-69
2022/11/09 02:48:14;;;;;;;69.30;50.70;;;12.00;90.50;;;;;;5004163;28;20703;-69
2022/11/09 02:50:41;;;;;;;75.97;50.07;;;12.10;90.60;;;;;;5010776;28;20207;-68
2022/11/09 02:53:08;;;;;;;73.50;50.77;;;12.10;90.50;;;;;;5001904;28;20200;-68
2022/11/09 02:55:39;;;;;;;63.87;48.60;;;12.10;90.40;;;;;;5005197;28;20202;-68
2022/11/09 02:58:07;;;;;;;64.40;48.30;;;12.10;90.40;;;;;;5019029;28;20205;-69
2022/11/09 03:00:35;;;;;;;64.70;48.37;;;12.10;90.40;;;;;;5006337;28;20704;-69
2022/11/09 03:03:03;;;;;;;76.80;48.83;;;12.20;90.40;;;;;;5000260;28;20198;-68
2022/11/09 03:05:30;;;;;;;66.87;47.57;;;12.20;90.40;;;;;;5003291;28;20203;-68
2022/11/09 03:08:01;;;;;;;73.00;51.90;;;12.20;90.40;;;;;;5019222;28;20316;-69
2022/11/09 03:10:31;;;;;;;70.53;50.10;;;12.20;90.40;;;;;;5003661;28;20298;-68
2022/11/09 03:12:59;;;;;;;72.87;49.93;;;12.20;90.40;;;;;;5013943;28;20216;-68
2022/11/09 03:15:26;;;;;;;72.23;50.90;;;12.20;90.40;;;;;;5009612;28;20254;-68
2022/11/09 03:17:54;;;;;;;75.23;51.03;;;12.20;90.40;;;;;;5000739;28;20217;-68
2022/11/09 03:20:23;;;;;;;70.87;50.73;;;12.20;90.40;;;;;;4999695;28;20213;-68
2022/11/09 03:22:50;;;;;;;68.93;52.47;;;12.30;90.40;;;;;;5007215;28;20292;-68
2022/11/09 03:25:17;;;;;;;70.00;49.47;;;12.30;90.30;;;;;;5016211;28;20661;-68
2022/11/09 03:27:44;;;;;;;71.23;49.40;;;12.30;90.30;;;;;;5000254;28;20207;-69
2022/11/09 03:30:12;;;;;;;69.00;48.40;;;12.30;90.30;;;;;;5009914;28;20245;-69
2022/11/09 03:32:39;;;;;;;66.77;49.00;;;12.30;90.30;;;;;;5006306;28;20199;-68
2022/11/09 03:35:07;;;;;;;72.33;49.30;;;12.30;90.30;;;;;;5002110;28;20650;-68
2022/11/09 03:37:34;;;;;;;71.57;49.50;;;12.30;90.30;;;;;;5031983;28;20638;-68
2022/11/09 03:40:02;;;;;;;70.17;49.13;;;12.30;90.30;;;;;;5009296;28;20214;-68
2022/11/09 03:42:29;;;;;;;71.90;49.70;;;12.30;90.30;;;;;;5000687;28;20225;-69
2022/11/09 03:44:56;;;;;;;69.60;48.70;;;12.30;90.30;;;;;;5007212;28;20207;-68
2022/11/09 03:47:23;;;;;;;70.10;49.47;;;12.30;90.30;;;;;;5003634;28;20218;-68
2022/11/09 03:49:50;;;;;;;73.17;48.17;;;12.30;90.30;;;;;;5004226;28;20208;-68
2022/11/09 03:52:17;;;;;;;72.57;49.87;;;12.30;90.40;;;;;;5002654;28;20200;-68
2022/11/09 03:54:44;;;;;;;73.50;50.70;;;12.40;90.40;;;;;;5001637;28;20202;-68
2022/11/09 03:57:11;;;;;;;67.50;47.80;;;12.40;90.40;;;;;;5004790;28;20591;-68
2022/11/09 03:59:38;;;;;;;71.90;50.60;;;12.40;90.40;;;;;;5005922;28;20641;-68
2022/11/09 04:02:05;;;;;;;69.17;49.70;;;12.40;90.40;;;;;;4995894;28;20224;-69
2022/11/09 04:04:32;;;;;;;68.77;50.13;;;12.40;90.30;;;;;;5009363;28;20270;-69
2022/11/09 04:06:59;;;;;;;64.90;48.40;;;12.40;90.40;;;;;;5007265;28;20250;-69
2022/11/09 04:09:27;;;;;;;66.53;49.33;;;12.40;90.30;;;;;;5003265;28;20306;-69
2022/11/09 04:11:53;;;;;;;69.10;49.70;;;12.40;90.30;;;;;;5008975;28;20217;-69
2022/11/09 04:14:20;;;;;;;69.80;49.67;;;12.40;90.30;;;;;;5006496;28;20209;-68
2022/11/09 04:16:47;;;;;;;68.33;47.87;;;12.50;90.30;;;;;;5005203;28;20218;-68
2022/11/09 04:19:14;;;;;;;63.10;47.37;;;12.50;90.20;;;;;;5003639;28;20254;-68
2022/11/09 04:21:42;;;;;;;73.60;48.93;;;12.50;90.20;;;;;;5008436;28;20235;-68
2022/11/09 04:24:09;;;;;;;70.93;49.50;;;12.50;90.20;;;;;;5004830;28;20209;-68
2022/11/09 04:26:36;;;;;;;71.63;51.07;;;12.50;90.30;;;;;;5008492;28;20243;-69
2022/11/09 04:29:03;;;;;;;69.63;49.53;;;12.50;90.30;;;;;;5007861;28;20213;-68
2022/11/09 04:31:30;;;;;;;80.00;51.40;;;12.50;90.30;;;;;;5002562;28;20219;-68
2022/11/09 04:33:57;;;;;;;68.47;50.20;;;12.40;90.30;;;;;;5002281;28;20247;-69
2022/11/09 04:36:25;;;;;;;67.73;50.37;;;12.40;90.30;;;;;;5003144;28;20274;-68
2022/11/09 04:38:51;;;;;;;65.23;48.33;;;12.40;90.40;;;;;;5005162;28;20681;-68
2022/11/09 04:41:18;;;;;;;72.83;48.93;;;12.50;90.40;;;;;;5000977;28;20223;-69
2022/11/09 04:43:46;;;;;;;70.53;47.80;;;12.50;90.40;;;;;;5004516;28;20203;-69
2022/11/09 04:46:13;;;;;;;65.23;46.57;;;12.40;90.30;;;;;;5004910;28;20201;-68
2022/11/09 04:48:40;;;;;;;69.83;51.07;;;12.50;90.40;;;;;;5003043;28;20227;-68
2022/11/09 04:51:09;;;;;;;68.57;48.47;;;12.50;90.40;;;;;;5003950;28;20208;-68
2022/11/09 04:53:37;;;;;;;65.63;49.27;;;12.40;90.40;;;;;;5011794;28;20203;-70
2022/11/09 04:56:06;;;;;;;70.23;48.80;;;12.40;90.40;;;;;;5004223;28;20218;-68
2022/11/09 04:58:33;;;;;;;70.63;47.27;;;12.40;90.40;;;;;;5011819;28;20199;-68
2022/11/09 05:01:10;;;;;;;68.43;49.03;;;12.40;90.50;;;;;;5003729;28;20208;-68
2022/11/09 05:03:38;;;;;;;67.67;48.43;;;12.40;90.50;;;;;;5003067;28;20199;-68
2022/11/09 05:06:51;;;;;;;64.40;46.83;;;12.50;90.50;;;;;;5010289;28;20230;-68
2022/11/09 05:08:54;;;;;;;65.83;48.40;;;12.50;90.50;;;;;;5006819;28;20224;-69
2022/11/09 05:11:22;;;;;;;72.17;48.73;;;12.50;90.50;;;;;;5001558;28;20588;-69
2022/11/09 05:13:50;;;;;;;59.70;46.00;;;12.50;90.50;;;;;;5005751;28;20589;-68
2022/11/09 05:16:18;;;;;;;63.00;48.23;;;12.50;90.50;;;;;;5005365;28;20209;-68
2022/11/09 05:18:46;;;;;;;67.53;48.97;;;12.50;90.50;;;;;;5001544;28;20210;-68
2022/11/09 05:21:13;;;;;;;72.17;49.23;;;12.40;90.60;;;;;;5006486;28;20595;-68
2022/11/09 05:23:59;;;;;;;62.30;47.63;;;12.40;90.90;;;;;;5003958;28;20264;-69
2022/11/09 05:26:32;;;;;;;66.90;48.90;;;12.40;90.60;;;;;;5003273;28;20231;-69
2022/11/09 05:29:00;;;;;;;71.03;48.03;;;12.40;90.60;;;;;;5002976;28;20208;-68
2022/11/09 05:31:28;;;;;;;71.50;49.33;;;12.50;90.50;;;;;;5005132;28;20514;-68
2022/11/09 05:33:56;;;;;;;68.50;50.43;;;12.40;90.50;;;;;;5001742;28;20287;-68
2022/11/09 05:36:23;;;;;;;70.63;49.57;;;12.40;90.60;;;;;;5002844;28;20213;-68
2022/11/09 05:38:50;;;;;;;69.97;46.57;;;12.40;90.60;;;;;;5003523;28;20580;-68
2022/11/09 05:41:17;;;;;;;72.00;49.13;;;12.40;90.60;;;;;;5003199;28;20201;-68
2022/11/09 05:43:45;;;;;;;63.47;47.13;;;12.30;90.60;;;;;;5003271;28;20223;-68
2022/11/09 05:46:13;;;;;;;72.17;48.03;;;12.30;90.70;;;;;;5000182;28;20229;-68
2022/11/09 05:48:41;;;;;;;69.73;47.13;;;12.30;90.70;;;;;;5010107;28;20201;-69
2022/11/09 05:51:10;;;;;;;61.80;47.40;;;12.30;90.70;;;;;;5004080;28;20197;-68
2022/11/09 05:53:38;;;;;;;62.23;47.87;;;12.30;90.70;;;;;;5010590;28;20278;-69
2022/11/09 05:56:13;;;;;;;64.20;46.80;;;12.30;90.70;;;;;;5005562;28;20290;-68
2022/11/09 05:58:40;;;;;;;72.43;49.67;;;12.30;90.70;;;;;;5006127;28;20262;-68
2022/11/09 06:01:14;;;;;;;63.47;46.73;;;12.30;90.80;;;;;;5004160;28;20226;-69
2022/11/09 06:03:42;;;;;;;67.00;47.23;;;12.30;90.80;;;;;;5007039;28;20260;-69
2022/11/09 06:06:12;;;;;;;62.77;45.40;;;12.30;90.90;;;;;;5001630;28;20286;-69
2022/11/09 06:08:40;;;;;;;64.33;48.50;;;12.30;90.90;;;;;;5005028;28;20609;-69
2022/11/09 06:11:09;;;;;;;69.83;47.27;;;12.30;90.90;;;;;;5000946;28;20210;-69
2022/11/09 06:13:36;;;;;;;72.40;47.87;;;12.30;90.90;;;;;;5003990;28;20743;-68
2022/11/09 06:16:04;;;;;;;68.87;50.07;;;12.30;90.90;;;;;;5011301;28;20209;-68
2022/11/09 06:18:34;;;;;;;64.10;47.93;;;12.30;91.00;;;;;;4998460;28;20641;-68
2022/11/09 06:21:03;;;;;;;65.00;46.83;;;12.30;91.00;;;;;;5012082;28;20212;-67
2022/11/09 06:23:31;;;;;;;66.87;47.33;;;12.30;91.00;;;;;;5001873;28;20296;-67
2022/11/09 06:26:00;;;;;;;69.97;49.53;;;12.30;91.00;;;;;;4998597;28;20253;-67
2022/11/09 06:28:28;;;;;;;65.53;48.53;;;12.40;91.10;;;;;;4998191;28;20215;-67
2022/11/09 06:31:00;;;;;;;75.13;48.70;;;12.40;91.10;;;;;;5005148;28;20249;-67
2022/11/09 06:33:30;;;;;;;72.13;48.83;;;12.40;91.10;;;;;;4998832;28;20205;-66
2022/11/09 06:35:57;;;;;;;70.17;48.93;;;12.40;91.10;;;;;;5005561;28;20596;-68
2022/11/09 06:38:25;;;;;;;69.33;49.27;;;12.40;91.10;;;;;;4995641;28;20557;-68
2022/11/09 06:40:53;;;;;;;66.60;48.97;;;12.40;91.00;;;;;;5002795;28;20474;-68
2022/11/09 06:43:21;;;;;;;71.57;49.77;;;12.40;91.00;;;;;;5000586;28;20227;-68
2022/11/09 06:45:49;;;;;;;69.37;50.17;;;12.40;91.10;;;;;;5006035;28;20244;-68
2022/11/09 06:48:17;;;;;;;69.83;49.50;;;12.30;91.00;;;;;;5000932;28;20196;-68
2022/11/09 06:50:44;;;;;;;68.60;49.40;;;12.30;91.10;;;;;;5003705;28;20250;-67
2022/11/09 06:53:13;;;;;;;68.40;47.90;;;12.40;91.10;;;;;;5003289;28;20212;-68
2022/11/09 06:55:41;;;;;;;71.57;51.60;;;12.40;91.20;;;;;;5002847;28;20215;-68
2022/11/09 06:58:15;;;;;;;67.37;49.00;;;12.50;91.30;;;;;;5007973;28;20256;-68
2022/11/09 07:00:44;;;;;;;72.00;49.33;;;12.70;91.10;;;;;;4998112;28;20589;-67
2022/11/09 07:03:13;;;;;;;60.30;42.90;;;12.90;90.80;;;;;;5003157;28;20219;-67
2022/11/09 07:05:40;;;;;;;61.83;43.23;;;13.30;90.40;;;;;;5000879;28;20203;-67
2022/11/09 07:08:08;;;;;;;58.80;44.60;;;13.60;89.80;;;;;;5008653;28;20263;-67
2022/11/09 07:10:35;;;;;;;65.43;43.37;;;13.80;88.60;;;;;;5002159;28;20219;-67
2022/11/09 07:13:03;;;;;;;60.67;41.87;;;13.90;87.90;;;;;;5007702;28;20215;-67
2022/11/09 07:15:31;;;;;;;51.53;38.10;;;13.90;87.70;;;;;;5001539;28;20582;-67
2022/11/09 07:17:59;;;;;;;55.23;37.27;;;14.00;87.80;;;;;;5008418;28;20208;-67
2022/11/09 07:20:27;;;;;;;55.30;36.73;;;14.00;87.50;;;;;;4998731;28;20272;-67
2022/11/09 07:22:54;;;;;;;48.80;34.37;;;14.20;87.20;;;;;;5000152;28;20226;-67
2022/11/09 07:25:23;;;;;;;47.43;36.20;;;14.30;86.70;;;;;;5000159;28;20298;-67
2022/11/09 07:27:51;;;;;;;49.97;34.73;;;14.40;86.50;;;;;;5001072;28;20204;-67
2022/11/09 07:30:18;;;;;;;46.23;33.83;;;14.50;86.30;;;;;;5005987;28;20210;-68
2022/11/09 07:32:46;;;;;;;47.67;31.30;;;14.40;86.00;;;;;;5011020;28;20225;-68
2022/11/09 07:35:33;;;;;;;44.23;31.30;;;14.40;86.10;;;;;;5003515;28;20237;-67
2022/11/09 07:38:00;;;;;;;42.90;31.30;;;14.30;86.20;;;;;;5006954;28;20204;-67
2022/11/09 07:40:29;;;;;;;42.67;31.53;;;14.30;86.30;;;;;;5005164;28;20201;-66
2022/11/09 07:43:00;;;;;;;43.37;32.87;;;14.20;86.70;;;;;;5003045;28;20219;-65
2022/11/09 07:45:31;;;;;;;45.50;31.63;;;14.20;87.20;;;;;;5008720;28;20206;-66
2022/11/09 07:48:01;;;;;;;43.97;32.13;;;14.30;87.00;;;;;;5002188;28;20203;-66
2022/11/09 07:50:29;;;;;;;45.03;32.60;;;14.30;86.60;;;;;;5003769;28;20247;-68
2022/11/09 07:52:58;;;;;;;49.03;33.80;;;14.40;86.40;;;;;;5005140;28;20598;-68
2022/11/09 07:55:26;;;;;;;42.70;32.07;;;14.50;86.50;;;;;;5003099;28;20218;-67
2022/11/09 07:58:13;;;;;;;44.57;30.90;;;14.60;86.60;;;;;;5011854;28;20211;-67
2022/11/09 08:00:42;;;;;;;41.00;31.37;;;14.70;86.20;;;;;;5004997;28;20581;-66
2022/11/09 08:03:10;;;;;;;42.37;30.17;;;14.80;85.90;;;;;;5003368;28;20219;-67
2022/11/09 08:05:37;;;;;;;41.67;31.00;;;15.00;85.50;;;;;;5002198;28;20211;-67
2022/11/09 08:08:07;;;;;;;39.27;28.40;;;15.20;84.90;;;;;;5004116;28;20525;-66
2022/11/09 08:10:35;;;;;;;49.57;27.73;;;15.30;84.00;;;;;;5003935;28;20661;-66
2022/11/09 08:13:11;;;;;;;37.40;27.80;;;15.50;83.40;;;;;;5004950;28;20202;-65
2022/11/09 08:15:39;;;;;;;35.07;26.20;;;15.60;83.10;;;;;;5004501;28;20200;-67
2022/11/09 08:18:12;;;;;;;39.37;27.60;;;15.70;81.60;;;;;;5004371;28;20228;-68
2022/11/09 08:20:39;;;;;;;38.37;27.27;;;15.80;80.70;;;;;;5002538;28;20684;-65
2022/11/09 08:23:06;;;;;;;34.77;26.77;;;15.90;80.00;;;;;;5002529;28;20548;-68
2022/11/09 08:25:34;;;;;;;40.20;26.97;;;15.90;77.80;;;;;;5005385;28;20310;-65
2022/11/09 08:28:02;;;;;;;37.00;26.50;;;16.00;76.80;;;;;;5003276;28;20203;-66
2022/11/09 08:30:30;;;;;;;37.40;27.37;;;16.00;77.10;;;;;;5005002;28;20197;-65
2022/11/09 08:32:59;;;;;;;37.93;25.27;;;16.10;77.20;;;;;;5003407;28;20586;-66
2022/11/09 08:35:27;;;;;;;35.47;26.20;;;16.20;76.90;;;;;;5002569;28;20208;-64
2022/11/09 08:37:54;;;;;;;35.07;27.20;;;16.30;74.90;;;;;;5006866;28;20204;-66
2022/11/09 08:40:23;;;;;;;37.13;26.00;;;16.40;74.40;;;;;;5001179;28;20545;-65
2022/11/09 08:42:51;;;;;;;35.97;26.90;;;16.50;74.50;;;;;;5003913;28;20522;-66
2022/11/09 08:45:19;;;;;;;37.60;27.03;;;16.60;74.10;;;;;;5003148;28;20204;-66
2022/11/09 08:47:46;;;;;;;39.73;26.83;;;16.60;74.10;;;;;;5003413;28;20219;-68
2022/11/09 08:50:14;;;;;;;36.67;27.27;;;16.70;73.70;;;;;;5003294;28;20205;-66
2022/11/09 08:52:41;;;;;;;38.37;27.53;;;16.80;73.70;;;;;;5004162;28;20257;-65
2022/11/09 08:55:08;;;;;;;38.23;28.90;;;16.90;73.00;;;;;;5001007;28;20210;-65
2022/11/09 08:57:35;;;;;;;42.67;28.53;;;16.90;73.00;;;;;;5001042;28;20209;-66
2022/11/09 09:00:04;;;;;;;43.27;29.77;;;17.00;73.20;;;;;;5001893;28;20208;-65
2022/11/09 09:02:31;;;;;;;44.13;28.17;;;17.10;72.60;;;;;;5000168;28;20224;-68
2022/11/09 09:04:58;;;;;;;45.07;28.83;;;17.10;72.20;;;;;;4998473;28;20634;-66
2022/11/09 09:07:25;;;;;;;43.00;31.17;;;17.20;71.60;;;;;;5004255;28;20289;-65
2022/11/09 09:09:53;;;;;;;46.37;32.40;;;17.20;70.90;;;;;;5003424;28;20273;-66
2022/11/09 09:12:20;;;;;;;47.10;32.33;;;17.20;71.20;;;;;;5003966;28;20566;-66
2022/11/09 09:14:47;;;;;;;45.00;31.10;;;17.20;71.00;;;;;;5003300;28;20194;-66
2022/11/09 09:17:14;;;;;;;40.57;30.90;;;17.20;71.30;;;;;;5002570;28;20231;-67
2022/11/09 09:19:41;;;;;;;41.83;31.13;;;17.30;71.50;;;;;;4999587;28;20216;-65
2022/11/09 09:22:15;;;;;;;42.20;31.07;;;17.40;71.60;;;;;;4998810;28;20223;-67
2022/11/09 09:24:45;;;;;;;39.60;30.80;;;17.50;71.60;;;;;;5001032;28;20262;-65
2022/11/09 09:27:12;;;;;;;45.23;33.57;;;17.50;71.30;;;;;;4999603;28;20574;-65
2022/11/09 09:29:39;;;;;;;45.57;32.13;;;17.60;71.00;;;;;;5001660;28;20545;-64
2022/11/09 09:32:06;;;;;;;46.97;33.87;;;17.70;70.60;;;;;;5002023;28;20693;-64
2022/11/09 09:34:33;;;;;;;53.97;36.37;;;17.70;70.30;;;;;;4999764;28;20280;-67
2022/11/09 09:37:00;;;;;;;45.33;34.13;;;17.70;70.40;;;;;;5003528;28;20204;-66
2022/11/09 09:39:27;;;;;;;45.73;34.90;;;17.70;70.60;;;;;;5010452;28;20205;-66
2022/11/09 09:42:03;;;;;;;45.00;33.90;;;17.70;70.40;;;;;;4999369;28;20703;-67
2022/11/09 09:44:54;;;;;;;45.47;34.40;;;17.80;70.40;;;;;;5001224;28;20220;-67
2022/11/09 09:48:01;;;;;;;47.97;36.13;;;17.90;70.20;;;;;;5005123;28;20545;-65
2022/11/09 09:50:44;;;;;;;51.13;35.60;;;18.00;70.00;;;;;;5004630;28;20209;-67
2022/11/09 09:53:15;;;;;;;45.63;34.57;;;18.10;69.70;;;;;;5002944;28;20209;-64
2022/11/09 09:56:20;;;;;;;50.30;36.27;;;18.10;69.50;;;;;;5000614;28;20208;-65
2022/11/09 09:58:57;;;;;;;51.87;37.00;;;18.30;69.30;;;;;;5004107;28;20623;-65
2022/11/09 10:01:34;;;;;;;48.93;35.10;;;18.40;69.30;;;;;;5007299;28;20578;-65
2022/11/09 10:04:01;;;;;;;48.43;36.10;;;18.50;68.70;;;;;;5001886;28;20229;-66
2022/11/09 10:06:46;;;;;;;51.33;35.87;;;18.50;68.30;;;;;;5001310;28;20583;-69
2022/11/09 10:09:31;;;;;;;48.10;35.30;;;18.60;67.80;;;;;;5002448;28;20583;-67
2022/11/09 10:12:03;;;;;;;50.47;36.60;;;18.60;67.80;;;;;;5002976;28;20637;-66
2022/11/09 10:14:45;;;;;;;49.00;36.53;;;18.60;66.80;;;;;;5001642;28;20212;-68
2022/11/09 10:17:44;;;;;;;53.20;36.67;;;18.70;66.60;;;;;;5007961;28;20205;-67
2022/11/09 10:20:45;;;;;;;52.63;36.73;;;18.70;66.60;;;;;;5008481;28;20221;-67
2022/11/09 10:23:40;;;;;;;48.57;36.93;;;18.70;66.10;;;;;;5003852;28;20210;-65
2022/11/09 10:26:25;;;;;;;50.37;36.20;;;18.80;66.60;;;;;;5000693;28;20230;-65
2022/11/09 10:29:01;;;;;;;50.03;35.37;;;18.80;66.80;;;;;;4999533;28;20202;-65
2022/11/09 10:31:44;;;;;;;47.90;36.03;;;18.90;66.80;;;;;;5001513;28;20197;-66
2022/11/09 10:34:41;;;;;;;50.57;38.57;;;19.00;66.80;;;;;;5001308;28;20202;-66
2022/11/09 10:37:27;;;;;;;49.73;36.33;;;19.00;66.40;;;;;;5003374;28;20227;-67
2022/11/09 10:40:02;;;;;;;48.33;37.07;;;19.10;65.50;;;;;;5002748;28;20210;-67
2022/11/09 10:42:53;;;;;;;48.90;37.50;;;19.20;65.50;;;;;;4999731;28;20591;-67
2022/11/09 10:45:44;;;;;;;48.67;37.10;;;19.30;65.00;;;;;;5004286;28;20218;-67
2022/11/09 10:48:33;;;;;;;46.37;37.43;;;19.30;64.60;;;;;;5004408;28;20209;-65
2022/11/09 10:51:40;;;;;;;51.83;38.47;;;19.40;64.20;;;;;;5001494;28;20276;-66
2022/11/09 10:54:36;;;;;;;45.43;36.47;;;19.50;62.70;;;;;;5030553;28;20249;-66
2022/11/09 10:57:24;;;;;;;47.03;37.17;;;19.60;63.50;;;;;;4999323;28;20221;-66
2022/11/09 11:00:15;;;;;;;49.97;37.83;;;19.70;63.70;;;;;;4998754;28;20222;-66
2022/11/09 11:03:15;;;;;;;48.40;36.73;;;19.90;62.30;;;;;;5005508;28;20242;-66
2022/11/09 11:06:01;;;;;;;50.50;37.27;;;20.00;61.60;;;;;;5001820;28;20561;-66
2022/11/09 11:08:50;;;;;;;46.37;36.43;;;20.10;61.00;;;;;;5002571;28;20226;-66
2022/11/09 11:11:38;;;;;;;53.87;37.13;;;20.00;61.20;;;;;;4998142;28;20209;-66
2022/11/09 11:14:32;;;;;;;48.07;37.60;;;19.90;61.60;;;;;;4999979;28;20229;-66
2022/11/09 11:17:20;;;;;;;46.40;35.20;;;19.90;61.90;;;;;;5004407;28;20211;-66
2022/11/09 11:20:31;;;;;;;52.87;36.97;;;20.10;62.30;;;;;;5001097;28;20259;-66
2022/11/09 11:23:22;;;;;;;47.73;36.70;;;20.20;62.00;;;;;;5002839;28;20277;-66
2022/11/09 11:26:36;;;;;;;53.37;38.20;;;20.30;61.80;;;;;;5004032;28;20254;-66
2022/11/09 11:29:54;;;;;;;47.93;36.97;;;20.40;60.60;;;;;;5000925;28;20343;-65
2022/11/09 11:32:40;;;;;;;48.67;36.33;;;20.50;60.90;;;;;;5005108;28;20304;-66
2022/11/09 11:35:55;;;;;;;46.80;36.50;;;20.50;61.50;;;;;;5001914;28;20214;-66
2022/11/09 11:39:05;;;;;;;49.47;39.07;;;20.40;61.10;;;;;;5003223;28;20215;-69
2022/11/09 11:42:28;;;;;;;49.43;38.03;;;20.40;61.00;;;;;;4999368;28;20209;-65
2022/11/09 11:45:41;;;;;;;47.60;38.03;;;20.40;60.70;;;;;;5003315;28;20643;-67
2022/11/09 11:48:46;;;;;;;46.57;39.43;;;20.40;60.20;;;;;;5001890;28;20335;-67
2022/11/09 11:51:49;;;;;;;47.13;37.33;;;20.20;60.60;;;;;;5003504;28;20221;-67
2022/11/09 11:55:14;;;;;;;42.30;36.43;;;20.10;60.80;;;;;;5003729;28;20226;-67
2022/11/09 11:58:27;;;;;;;49.77;38.60;;;19.90;61.90;;;;;;5002043;28;20659;-67
2022/11/09 12:01:22;;;;;;;52.10;37.77;;;19.90;62.10;;;;;;5003410;28;20301;-67
2022/11/09 12:04:41;;;;;;;48.20;36.47;;;19.80;62.30;;;;;;5003380;28;20230;-67
2022/11/09 12:07:38;;;;;;;49.97;37.03;;;19.80;62.50;;;;;;4999999;28;20540;-67
2022/11/09 12:10:31;;;;;;;50.00;37.43;;;19.70;62.20;;;;;;5006427;28;20398;-67
2022/11/09 12:13:38;;;;;;;50.53;38.27;;;19.70;62.80;;;;;;5000420;28;20207;-67
2022/11/09 12:16:32;;;;;;;48.43;37.37;;;19.60;63.10;;;;;;5005096;28;20350;-67
2022/11/09 12:19:36;;;;;;;50.63;37.93;;;19.70;62.80;;;;;;4999104;28;20357;-66
2022/11/09 12:22:48;;;;;;;50.53;37.70;;;19.60;62.80;;;;;;5003370;28;20222;-67
2022/11/09 12:25:54;;;;;;;49.87;37.67;;;19.70;62.80;;;;;;5005193;28;20253;-66
2022/11/09 12:29:01;;;;;;;48.73;39.63;;;19.70;62.30;;;;;;5006512;28;20226;-67
2022/11/09 12:32:09;;;;;;;50.83;36.03;;;19.80;62.10;;;;;;5003538;28;20670;-67
2022/11/09 12:35:07;;;;;;;49.30;38.10;;;19.80;62.90;;;;;;5003443;28;20214;-67
2022/11/09 12:38:07;;;;;;;48.60;38.30;;;19.90;62.50;;;;;;5003118;28;20555;-66
2022/11/09 12:41:06;;;;;;;48.70;37.43;;;19.90;62.50;;;;;;5002623;28;20234;-67
2022/11/09 12:44:17;;;;;;;50.63;37.77;;;20.10;62.50;;;;;;5008691;28;20672;-66
2022/11/09 12:47:09;;;;;;;45.97;36.23;;;20.30;62.10;;;;;;5008097;28;20537;-66
2022/11/09 12:49:55;;;;;;;48.20;38.37;;;20.50;62.40;;;;;;5004884;28;20223;-66
2022/11/09 12:52:43;;;;;;;51.50;38.40;;;20.60;61.80;;;;;;5003260;28;20206;-67
2022/11/09 12:55:40;;;;;;;53.93;38.87;;;20.50;61.80;;;;;;5003057;28;20323;-67
2022/11/09 12:58:29;;;;;;;48.70;39.60;;;20.50;62.40;;;;;;5005484;28;20356;-67
2022/11/09 13:01:32;;;;;;;46.53;37.37;;;20.40;62.70;;;;;;5004572;28;20227;-67
2022/11/09 13:04:20;;;;;;;47.60;37.17;;;20.30;62.50;;;;;;5004345;28;20226;-67
2022/11/09 13:07:06;;;;;;;50.20;38.33;;;20.20;62.70;;;;;;5003902;28;20258;-67